Time;durP1;ratioP1;P1;durP2;ratioP2;P2;SDS_P1;SDS_P2;PMS_P1;PMS_P2;Temp;Humidity;BMP_temperature;BMP_pressure;BME280_temperature;BME280_humidity;BME280_pressure;Samples;Min_cycle;Max_cycle;Signal;HPM_P1;HPM_P2
2021/12/12 00:01:08;;;;;;;8.52;3.75;;;5.20;99.90;;;;;;5043456;28;20181;-61
2021/12/12 00:03:46;;;;;;;4.13;3.47;;;5.20;99.90;;;;;;5050772;28;20299;-62
2021/12/12 00:06:19;;;;;;;5.53;3.70;;;5.20;99.90;;;;;;5045096;28;20192;-62
2021/12/12 00:08:50;;;;;;;4.47;3.15;;;5.20;99.90;;;;;;5049644;28;20244;-62
2021/12/12 00:11:21;;;;;;;4.32;3.17;;;5.20;99.90;;;;;;5045139;28;20225;-62
2021/12/12 00:13:55;;;;;;;3.45;2.70;;;5.20;99.90;;;;;;5050711;28;20224;-61
2021/12/12 00:16:23;;;;;;;9.65;3.30;;;5.20;99.90;;;;;;5051657;28;20189;-62
2021/12/12 00:18:55;;;;;;;6.13;3.30;;;5.20;99.90;;;;;;5050789;28;20228;-61
2021/12/12 00:21:25;;;;;;;4.72;3.17;;;5.20;99.90;;;;;;5050955;28;20185;-60
2021/12/12 00:23:53;;;;;;;4.82;2.95;;;5.20;99.90;;;;;;5052071;28;20749;-63
2021/12/12 00:26:22;;;;;;;4.55;2.75;;;5.20;99.90;;;;;;5061427;28;20684;-64
2021/12/12 00:28:53;;;;;;;4.07;2.72;;;5.20;99.90;;;;;;5059900;28;20227;-62
2021/12/12 00:31:24;;;;;;;3.83;2.78;;;5.20;99.90;;;;;;5062157;28;20195;-66
2021/12/12 00:33:55;;;;;;;3.70;2.80;;;5.20;99.90;;;;;;5064391;28;20224;-64
2021/12/12 00:36:25;;;;;;;2.95;2.53;;;5.20;99.90;;;;;;5064853;28;20220;-63
2021/12/12 00:38:57;;;;;;;4.00;2.60;;;5.20;99.90;;;;;;5065071;28;20216;-62
2021/12/12 00:41:28;;;;;;;4.70;2.60;;;5.20;99.90;;;;;;5065010;28;20223;-65
2021/12/12 00:44:00;;;;;;;3.33;2.65;;;5.20;99.90;;;;;;5063018;28;20220;-63
2021/12/12 00:46:29;;;;;;;3.08;2.72;;;5.20;99.90;;;;;;5057641;28;20212;-61
2021/12/12 00:48:57;;;;;;;3.45;2.20;;;5.20;99.90;;;;;;5053709;28;20762;-62
2021/12/12 00:51:30;;;;;;;4.30;2.55;;;5.20;99.90;;;;;;5053495;28;20228;-61
2021/12/12 00:53:59;;;;;;;4.20;2.72;;;5.20;99.90;;;;;;5053356;28;20212;-65
2021/12/12 00:56:28;;;;;;;2.78;2.55;;;5.20;99.90;;;;;;5053908;28;20196;-61
2021/12/12 00:58:58;;;;;;;3.05;2.67;;;5.20;99.90;;;;;;5052664;28;20225;-62
2021/12/12 01:01:30;;;;;;;3.97;2.70;;;5.20;99.90;;;;;;5052758;28;20192;-61
2021/12/12 01:04:05;;;;;;;4.70;2.80;;;5.20;99.90;;;;;;5052781;28;20224;-61
2021/12/12 01:06:33;;;;;;;3.28;2.95;;;5.20;99.90;;;;;;5053896;28;20212;-61
2021/12/12 01:09:06;;;;;;;4.50;3.10;;;5.20;99.90;;;;;;5065485;28;20220;-63
2021/12/12 01:11:37;;;;;;;4.93;2.40;;;5.20;99.90;;;;;;5052408;28;20184;-62
2021/12/12 01:14:11;;;;;;;3.97;3.10;;;5.20;99.90;;;;;;5052308;28;20209;-62
2021/12/12 01:16:44;;;;;;;6.55;3.03;;;5.20;99.90;;;;;;5052147;28;21625;-62
2021/12/12 01:19:15;;;;;;;2.90;2.60;;;5.20;99.90;;;;;;5054264;28;20778;-64
2021/12/12 01:21:48;;;;;;;3.95;2.75;;;5.20;99.90;;;;;;5053687;28;20199;-62
2021/12/12 01:24:19;;;;;;;8.63;3.83;;;5.20;99.90;;;;;;5049473;28;20277;-62
2021/12/12 01:26:49;;;;;;;5.88;3.05;;;5.20;99.90;;;;;;5035350;28;20600;-64
2021/12/12 01:29:18;;;;;;;3.22;2.80;;;5.20;99.90;;;;;;5042755;28;20216;-60
2021/12/12 01:31:48;;;;;;;4.90;3.08;;;5.20;99.90;;;;;;5053269;28;20193;-63
2021/12/12 01:34:18;;;;;;;3.17;2.35;;;5.20;99.90;;;;;;5052244;28;20220;-63
2021/12/12 01:36:57;;;;;;;4.85;2.90;;;5.20;99.90;;;;;;5053527;28;20291;-62
2021/12/12 01:39:26;;;;;;;3.78;3.20;;;5.20;99.90;;;;;;5052082;28;20572;-61
2021/12/12 01:42:01;;;;;;;3.28;2.60;;;5.20;99.90;;;;;;5053071;28;20192;-62
2021/12/12 01:44:36;;;;;;;6.45;3.20;;;5.20;99.90;;;;;;5051280;28;20306;-64
2021/12/12 01:47:10;;;;;;;3.00;2.17;;;5.20;99.90;;;;;;5045234;28;20185;-63
2021/12/12 01:49:43;;;;;;;8.63;3.25;;;5.20;99.90;;;;;;5052690;28;20741;-61
2021/12/12 01:52:15;;;;;;;2.80;2.45;;;5.20;99.90;;;;;;5051891;28;20215;-63
2021/12/12 01:54:47;;;;;;;5.22;2.85;;;5.20;99.90;;;;;;5052356;28;20240;-64
2021/12/12 01:57:18;;;;;;;6.07;2.55;;;5.20;99.90;;;;;;5052282;28;20189;-64
2021/12/12 01:59:50;;;;;;;4.18;2.83;;;5.20;99.90;;;;;;5051835;28;20608;-61
2021/12/12 02:02:22;;;;;;;5.72;2.80;;;5.20;99.90;;;;;;5051269;28;20184;-62
2021/12/12 02:04:53;;;;;;;10.13;3.70;;;5.20;99.90;;;;;;5050994;28;20240;-62
2021/12/12 02:07:25;;;;;;;4.38;3.78;;;5.20;99.90;;;;;;5051772;28;20788;-63
2021/12/12 02:09:54;;;;;;;5.18;2.65;;;5.20;99.90;;;;;;5052852;28;20188;-63
2021/12/12 02:12:24;;;;;;;6.00;2.85;;;5.20;99.90;;;;;;5051622;28;20227;-62
2021/12/12 02:14:54;;;;;;;4.63;2.25;;;5.20;99.90;;;;;;5050965;28;20255;-62
2021/12/12 02:17:30;;;;;;;5.72;3.58;;;5.20;99.90;;;;;;5038476;28;20223;-62
2021/12/12 02:20:07;;;;;;;3.55;3.05;;;5.20;99.90;;;;;;5052757;28;20190;-61
2021/12/12 02:22:56;;;;;;;8.63;2.90;;;5.20;99.90;;;;;;5050488;28;20223;-61
2021/12/12 02:36:34;;;;;;;5.82;3.47;;;5.20;99.90;;;;;;5052617;28;20600;-60
2021/12/12 02:39:08;;;;;;;7.28;3.00;;;5.20;99.90;;;;;;5050539;28;20273;-64
2021/12/12 02:41:36;;;;;;;5.10;2.70;;;5.20;99.90;;;;;;5053127;28;20713;-63
2021/12/12 02:44:05;;;;;;;5.55;3.22;;;5.20;99.90;;;;;;5050445;28;20275;-63
2021/12/12 02:46:36;;;;;;;3.22;2.35;;;5.20;99.90;;;;;;5051949;28;20211;-62
2021/12/12 02:49:11;;;;;;;5.93;2.90;;;5.20;99.90;;;;;;5035736;28;20216;-61
2021/12/12 02:51:43;;;;;;;4.85;2.65;;;5.20;99.90;;;;;;5051816;28;20254;-61
2021/12/12 02:54:12;;;;;;;6.95;2.67;;;5.20;99.90;;;;;;5049749;28;20216;-62
2021/12/12 02:56:47;;;;;;;4.45;3.40;;;5.20;99.90;;;;;;5051100;28;20395;-62
2021/12/12 02:59:20;;;;;;;3.00;2.70;;;5.20;99.90;;;;;;5050813;28;20216;-61
2021/12/12 03:01:52;;;;;;;4.45;2.83;;;5.20;99.90;;;;;;5051625;28;20663;-61
2021/12/12 03:04:21;;;;;;;3.50;2.83;;;5.20;99.90;;;;;;5050588;28;20576;-61
2021/12/12 03:06:49;;;;;;;6.88;2.80;;;5.20;99.90;;;;;;5050399;28;20583;-63
2021/12/12 03:09:22;;;;;;;7.82;3.28;;;5.20;99.90;;;;;;5050627;28;20323;-62
2021/12/12 03:11:54;;;;;;;6.10;2.90;;;5.20;99.90;;;;;;5051457;28;20238;-63
2021/12/12 03:14:22;;;;;;;4.25;2.65;;;5.20;99.90;;;;;;5049717;28;20270;-61
2021/12/12 03:16:51;;;;;;;4.90;2.78;;;5.20;99.90;;;;;;5050712;28;20275;-62
2021/12/12 03:19:20;;;;;;;3.42;3.03;;;5.20;99.90;;;;;;5049894;28;20216;-62
2021/12/12 03:21:49;;;;;;;3.10;2.45;;;5.20;99.90;;;;;;5050710;28;20192;-63
2021/12/12 03:24:22;;;;;;;9.40;3.10;;;5.20;99.90;;;;;;5048939;28;20266;-64
2021/12/12 03:26:54;;;;;;;5.72;2.90;;;5.20;99.90;;;;;;5051134;28;20192;-61
2021/12/12 03:29:23;;;;;;;2.67;2.30;;;5.20;99.90;;;;;;5049890;28;20244;-62
2021/12/12 03:31:57;;;;;;;3.65;2.42;;;5.20;99.90;;;;;;5051235;28;20303;-63
2021/12/12 03:34:30;;;;;;;3.92;2.58;;;5.20;99.90;;;;;;5050074;28;20213;-62
2021/12/12 03:36:58;;;;;;;4.10;2.85;;;5.20;99.90;;;;;;5050194;28;20188;-60
2021/12/12 03:39:31;;;;;;;4.50;3.05;;;5.20;99.90;;;;;;5050056;28;20214;-61
2021/12/12 03:42:02;;;;;;;4.35;1.95;;;5.20;99.90;;;;;;5050909;28;20189;-62
2021/12/12 03:44:33;;;;;;;3.50;2.60;;;5.20;99.90;;;;;;5088882;28;20223;-64
2021/12/12 03:47:05;;;;;;;4.45;2.88;;;5.20;99.90;;;;;;5090359;28;20672;-60
2021/12/12 03:49:34;;;;;;;2.60;2.30;;;5.20;99.90;;;;;;5091009;28;20252;-61
2021/12/12 03:52:03;;;;;;;2.88;2.55;;;5.30;99.90;;;;;;5090147;28;20249;-62
2021/12/12 03:54:32;;;;;;;2.50;2.30;;;5.20;99.90;;;;;;5090395;28;20211;-62
2021/12/12 03:57:00;;;;;;;4.50;2.95;;;5.20;99.90;;;;;;5090963;28;20780;-62
2021/12/12 03:59:30;;;;;;;6.47;2.20;;;5.20;99.90;;;;;;5090357;28;20214;-61
2021/12/12 04:01:58;;;;;;;4.80;2.55;;;5.20;99.90;;;;;;5092461;28;20199;-62
2021/12/12 04:04:30;;;;;;;4.00;3.03;;;5.20;99.90;;;;;;5089844;28;20226;-63
2021/12/12 04:07:01;;;;;;;5.85;2.75;;;5.20;99.90;;;;;;5090711;28;20270;-62
2021/12/12 04:09:30;;;;;;;3.35;2.60;;;5.20;99.90;;;;;;5093563;28;20310;-61
2021/12/12 04:12:03;;;;;;;2.42;2.10;;;5.20;99.90;;;;;;5095332;28;20199;-61
2021/12/12 04:14:32;;;;;;;4.55;2.60;;;5.20;99.90;;;;;;5091623;28;20272;-62
2021/12/12 04:17:04;;;;;;;6.57;3.38;;;5.20;99.90;;;;;;5094461;28;20241;-61
2021/12/12 04:19:32;;;;;;;3.03;2.65;;;5.20;99.90;;;;;;5094364;28;20219;-62
2021/12/12 04:22:01;;;;;;;6.20;2.85;;;5.20;99.90;;;;;;5093429;28;20317;-62
2021/12/12 04:24:33;;;;;;;3.35;2.50;;;5.20;99.90;;;;;;5093512;28;20215;-64
2021/12/12 04:27:04;;;;;;;5.00;3.40;;;5.20;99.90;;;;;;5094570;28;20574;-64
2021/12/12 04:29:35;;;;;;;3.95;2.50;;;5.20;99.90;;;;;;5093538;28;20354;-62
2021/12/12 04:32:06;;;;;;;6.05;3.33;;;5.20;99.90;;;;;;5094729;28;20191;-63
2021/12/12 04:34:37;;;;;;;3.60;3.15;;;5.20;99.90;;;;;;5093960;28;20229;-63
2021/12/12 04:37:07;;;;;;;2.95;2.65;;;5.20;99.90;;;;;;5085801;28;20266;-62
2021/12/12 04:39:38;;;;;;;6.53;3.20;;;5.20;99.90;;;;;;5093912;28;20540;-60
2021/12/12 04:42:10;;;;;;;3.70;2.55;;;5.20;99.90;;;;;;5092564;28;20194;-61
2021/12/12 04:44:41;;;;;;;2.83;2.25;;;5.20;99.90;;;;;;5093508;28;20238;-61
2021/12/12 04:50:12;;;;;;;2.50;2.10;;;5.20;99.90;;;;;;5094586;28;20241;-61
2021/12/12 04:52:45;;;;;;;7.15;2.85;;;5.20;99.90;;;;;;5093263;28;20222;-64
2021/12/12 04:55:21;;;;;;;2.47;2.10;;;5.20;99.90;;;;;;5093550;28;20749;-61
2021/12/12 04:57:57;;;;;;;3.47;2.30;;;5.20;99.90;;;;;;5091822;28;20631;-60
2021/12/12 05:00:29;;;;;;;3.35;2.22;;;5.20;99.90;;;;;;5093861;28;20429;-61
2021/12/12 05:03:02;;;;;;;4.72;2.58;;;5.20;99.90;;;;;;5093131;28;20241;-62
2021/12/12 05:05:35;;;;;;;3.28;2.22;;;5.20;99.90;;;;;;5093508;28;20282;-61
2021/12/12 05:08:10;;;;;;;2.97;2.65;;;5.20;99.90;;;;;;5093116;28;20627;-61
2021/12/12 05:10:43;;;;;;;6.05;2.42;;;5.20;99.90;;;;;;5093808;28;20570;-61
2021/12/12 05:13:16;;;;;;;3.88;2.33;;;5.20;99.90;;;;;;5092687;28;20309;-61
2021/12/12 05:15:47;;;;;;;2.28;2.00;;;5.20;99.90;;;;;;5093126;28;20269;-62
2021/12/12 05:18:19;;;;;;;2.70;2.13;;;5.20;99.90;;;;;;5092877;28;20215;-62
2021/12/12 05:20:53;;;;;;;4.95;3.20;;;5.20;99.90;;;;;;5091570;28;20221;-64
2021/12/12 05:23:25;;;;;;;3.25;2.35;;;5.20;99.90;;;;;;5087103;28;20214;-61
2021/12/12 05:25:57;;;;;;;3.85;2.22;;;5.20;99.90;;;;;;5093019;28;20222;-61
2021/12/12 05:28:32;;;;;;;3.78;2.40;;;5.20;99.90;;;;;;5092098;28;20249;-62
2021/12/12 05:31:02;;;;;;;2.30;2.10;;;5.20;99.90;;;;;;5092911;28;21434;-62
2021/12/12 05:33:32;;;;;;;2.53;2.00;;;5.20;99.90;;;;;;5092829;28;20736;-61
2021/12/12 05:36:00;;;;;;;3.55;2.45;;;5.20;99.90;;;;;;5092267;28;20202;-64
2021/12/12 05:38:30;;;;;;;3.88;2.25;;;5.20;99.90;;;;;;5091797;28;20302;-62
2021/12/12 05:40:58;;;;;;;2.30;1.98;;;5.20;99.90;;;;;;5092992;28;20187;-61
2021/12/12 05:43:30;;;;;;;6.38;2.38;;;5.20;99.90;;;;;;5091129;28;20211;-63
2021/12/12 05:45:58;;;;;;;3.90;2.40;;;5.20;99.90;;;;;;5092919;28;20233;-62
2021/12/12 05:48:26;;;;;;;3.58;2.13;;;5.30;99.90;;;;;;5092243;28;20280;-63
2021/12/12 05:50:56;;;;;;;6.30;2.10;;;5.30;99.90;;;;;;5092330;28;20658;-60
2021/12/12 05:53:28;;;;;;;2.80;2.08;;;5.20;99.90;;;;;;5091191;28;20219;-62
2021/12/12 05:55:57;;;;;;;3.25;2.03;;;5.30;99.90;;;;;;5092329;28;20204;-62
2021/12/12 05:58:25;;;;;;;4.35;1.90;;;5.20;99.90;;;;;;5090288;28;20474;-63
2021/12/12 06:00:58;;;;;;;3.88;2.13;;;5.20;99.90;;;;;;5092609;28;20642;-63
2021/12/12 06:03:30;;;;;;;2.10;1.60;;;5.20;99.90;;;;;;5092177;28;20280;-62
2021/12/12 06:06:00;;;;;;;1.90;1.70;;;5.30;99.90;;;;;;5092275;28;20574;-61
2021/12/12 06:08:29;;;;;;;2.97;1.73;;;5.30;99.90;;;;;;5091607;28;20221;-62
2021/12/12 06:10:59;;;;;;;2.05;1.40;;;5.30;99.90;;;;;;5091935;28;20187;-62
2021/12/12 06:13:31;;;;;;;2.10;1.90;;;5.20;99.90;;;;;;5091610;28;20314;-63
2021/12/12 06:16:01;;;;;;;2.00;1.90;;;5.20;99.90;;;;;;5091756;28;20214;-62
2021/12/12 06:18:32;;;;;;;2.65;2.13;;;5.20;99.90;;;;;;5092400;28;20211;-62
2021/12/12 06:21:00;;;;;;;2.72;2.08;;;5.20;99.90;;;;;;5092259;28;20187;-63
2021/12/12 06:23:30;;;;;;;2.60;1.88;;;5.20;99.90;;;;;;5091389;28;20211;-63
2021/12/12 06:25:58;;;;;;;1.98;1.60;;;5.20;99.90;;;;;;5091698;28;20219;-64
2021/12/12 06:28:29;;;;;;;1.45;1.30;;;5.20;99.90;;;;;;5091050;28;20716;-62
2021/12/12 06:31:01;;;;;;;2.65;2.28;;;5.30;99.90;;;;;;5091494;28;20187;-61
2021/12/12 06:33:31;;;;;;;1.75;1.40;;;5.20;99.90;;;;;;5091573;28;20309;-61
2021/12/12 06:36:00;;;;;;;2.20;1.30;;;5.20;99.90;;;;;;5091275;28;20623;-62
2021/12/12 06:38:28;;;;;;;1.85;1.50;;;5.20;99.90;;;;;;5091791;28;20280;-63
2021/12/12 06:40:56;;;;;;;1.70;1.50;;;5.20;99.90;;;;;;5092650;28;20187;-63
2021/12/12 06:43:25;;;;;;;1.65;1.42;;;5.30;99.90;;;;;;5092285;28;20227;-63
2021/12/12 06:45:53;;;;;;;2.72;1.90;;;5.20;99.90;;;;;;5092736;28;20229;-61
2021/12/12 06:48:21;;;;;;;1.77;1.67;;;5.20;99.90;;;;;;5090046;28;20218;-62
2021/12/12 06:50:54;;;;;;;2.38;1.55;;;5.20;99.90;;;;;;5092097;28;20612;-60
2021/12/12 06:53:24;;;;;;;2.10;1.40;;;5.20;99.90;;;;;;5089809;28;20593;-61
2021/12/12 06:55:53;;;;;;;2.83;1.42;;;5.20;99.90;;;;;;5091821;28;20302;-63
2021/12/12 06:58:23;;;;;;;1.85;1.70;;;5.20;99.90;;;;;;5090441;28;20294;-62
2021/12/12 07:00:57;;;;;;;2.00;1.60;;;5.20;99.90;;;;;;5091883;28;20187;-61
2021/12/12 07:03:26;;;;;;;2.47;1.70;;;5.20;99.90;;;;;;5091012;28;20297;-60
2021/12/12 07:05:56;;;;;;;2.00;1.65;;;5.20;99.90;;;;;;5091779;28;20286;-61
2021/12/12 07:08:24;;;;;;;1.67;1.45;;;5.20;99.90;;;;;;5090114;28;20605;-62
2021/12/12 07:10:53;;;;;;;1.80;1.35;;;5.20;99.90;;;;;;5092010;28;20612;-63
2021/12/12 07:13:21;;;;;;;2.22;1.60;;;5.30;99.90;;;;;;5090352;28;20219;-62
2021/12/12 07:15:52;;;;;;;3.45;2.25;;;5.20;99.90;;;;;;5091633;28;20317;-63
2021/12/12 07:18:25;;;;;;;1.40;1.20;;;5.20;99.90;;;;;;5091011;28;20306;-61
2021/12/12 07:20:58;;;;;;;2.50;1.45;;;5.20;99.90;;;;;;5090875;28;20219;-61
2021/12/12 07:23:29;;;;;;;2.50;1.38;;;5.20;99.90;;;;;;5081414;28;20211;-63
2021/12/12 07:26:00;;;;;;;2.60;1.38;;;5.20;99.90;;;;;;5090121;28;20305;-62
2021/12/12 07:28:29;;;;;;;2.35;1.83;;;5.30;99.90;;;;;;5090724;28;20230;-62
2021/12/12 07:31:00;;;;;;;2.90;1.45;;;5.30;99.90;;;;;;5091377;28;20187;-64
2021/12/12 07:33:29;;;;;;;1.10;0.93;;;5.30;99.90;;;;;;5091004;28;20215;-60
2021/12/12 07:36:01;;;;;;;1.67;1.27;;;5.30;99.90;;;;;;5090884;28;20657;-62
2021/12/12 07:38:31;;;;;;;2.00;1.70;;;5.30;99.90;;;;;;5090502;28;20566;-61
2021/12/12 07:41:01;;;;;;;1.48;1.20;;;5.30;99.90;;;;;;5091775;28;20233;-62
2021/12/12 07:43:31;;;;;;;1.20;1.10;;;5.30;99.90;;;;;;5093562;28;20268;-61
2021/12/12 07:46:01;;;;;;;1.63;1.20;;;5.30;99.90;;;;;;5095102;28;20648;-61
2021/12/12 07:48:30;;;;;;;2.47;1.42;;;5.30;99.90;;;;;;5094888;28;20219;-61
2021/12/12 07:51:00;;;;;;;2.20;1.70;;;5.30;99.90;;;;;;5096306;28;20191;-61
2021/12/12 07:53:30;;;;;;;2.25;1.55;;;5.30;99.90;;;;;;5093242;28;20215;-61
2021/12/12 07:56:00;;;;;;;1.75;1.58;;;5.30;99.90;;;;;;5096036;28;20694;-63
2021/12/12 07:58:29;;;;;;;1.75;1.40;;;5.30;99.90;;;;;;5094581;28;20221;-61
2021/12/12 08:01:05;;;;;;;1.40;1.25;;;5.30;99.90;;;;;;5095882;28;20565;-61
2021/12/12 08:03:37;;;;;;;1.40;1.00;;;5.30;99.90;;;;;;5095432;28;20608;-62
2021/12/12 08:06:11;;;;;;;1.58;1.30;;;5.30;99.90;;;;;;5095890;28;20607;-60
2021/12/12 08:08:41;;;;;;;1.25;0.98;;;5.30;99.90;;;;;;5093664;28;20215;-62
2021/12/12 08:11:10;;;;;;;1.30;1.10;;;5.30;99.90;;;;;;5095363;28;20281;-60
2021/12/12 08:13:39;;;;;;;1.77;0.90;;;5.30;99.90;;;;;;5092648;28;20207;-62
2021/12/12 08:16:09;;;;;;;2.08;1.30;;;5.30;99.90;;;;;;5094619;28;20670;-63
2021/12/12 08:18:40;;;;;;;1.70;1.30;;;5.30;99.90;;;;;;5094719;28;20218;-62
2021/12/12 08:21:11;;;;;;;1.20;1.10;;;5.30;99.90;;;;;;5092632;28;20770;-62
2021/12/12 08:23:41;;;;;;;1.25;1.10;;;5.30;99.90;;;;;;5093020;28;20701;-62
2021/12/12 08:26:10;;;;;;;1.10;1.00;;;5.30;99.90;;;;;;5093386;28;20577;-62
2021/12/12 08:28:40;;;;;;;1.63;1.10;;;5.30;99.90;;;;;;5093085;28;20215;-63
2021/12/12 08:31:12;;;;;;;1.38;1.27;;;5.30;99.90;;;;;;5093772;28;20282;-61
2021/12/12 08:33:44;;;;;;;2.22;1.10;;;5.30;99.90;;;;;;5092852;28;20430;-60
2021/12/12 08:36:15;;;;;;;0.88;0.80;;;5.30;99.90;;;;;;5093300;28;20662;-61
2021/12/12 08:38:44;;;;;;;1.10;0.95;;;5.30;99.90;;;;;;5092473;28;20359;-63
2021/12/12 08:41:14;;;;;;;1.30;1.00;;;5.30;99.90;;;;;;5095128;28;20195;-62
2021/12/12 08:43:43;;;;;;;1.40;1.23;;;5.30;99.90;;;;;;5091083;28;20276;-60
2021/12/12 08:46:14;;;;;;;1.50;1.17;;;5.30;99.90;;;;;;5094997;28;20191;-60
2021/12/12 08:48:47;;;;;;;2.95;1.30;;;5.30;99.90;;;;;;5093522;27;20218;-61
2021/12/12 08:51:25;;;;;;;1.13;1.00;;;5.30;99.90;;;;;;5093209;28;20199;-61
2021/12/12 08:53:55;;;;;;;1.20;1.10;;;5.30;99.90;;;;;;5090430;28;20285;-61
2021/12/12 08:56:43;;;;;;;1.58;1.20;;;5.30;99.90;;;;;;5095294;28;20278;-61
2021/12/12 08:59:19;;;;;;;1.65;0.80;;;5.30;99.90;;;;;;5093559;28;20621;-62
2021/12/12 09:01:51;;;;;;;1.80;1.40;;;5.30;99.90;;;;;;5095134;28;20187;-62
2021/12/12 09:04:21;;;;;;;1.23;1.13;;;5.30;99.90;;;;;;5091710;28;20801;-61
2021/12/12 09:07:04;;;;;;;1.40;1.30;;;5.30;99.90;;;;;;5093936;28;20209;-61
2021/12/12 09:09:38;;;;;;;1.33;0.93;;;5.30;99.90;;;;;;5094408;28;20621;-61
2021/12/12 09:12:19;;;;;;;1.40;1.30;;;5.30;99.90;;;;;;5093144;28;20658;-62
2021/12/12 09:14:53;;;;;;;1.50;1.30;;;5.40;99.90;;;;;;5093221;28;20280;-60
2021/12/12 09:17:29;;;;;;;1.65;1.30;;;5.40;99.90;;;;;;5093120;28;20267;-61
2021/12/12 09:20:03;;;;;;;1.20;1.10;;;5.40;99.90;;;;;;5094024;28;20187;-63
2021/12/12 09:22:36;;;;;;;2.10;1.30;;;5.40;99.90;;;;;;5092139;28;20242;-60
2021/12/12 09:25:11;;;;;;;2.38;1.40;;;5.40;99.90;;;;;;5093226;28;20238;-64
2021/12/12 09:27:44;;;;;;;1.15;1.05;;;5.40;99.90;;;;;;5093291;28;20306;-60
2021/12/12 09:30:14;;;;;;;2.45;1.05;;;5.40;99.90;;;;;;5093044;28;20285;-61
2021/12/12 09:32:49;;;;;;;1.25;1.15;;;5.40;99.90;;;;;;5092715;28;20227;-61
2021/12/12 09:35:23;;;;;;;1.95;1.35;;;5.40;99.90;;;;;;5093367;28;20689;-60
2021/12/12 09:37:59;;;;;;;1.42;1.20;;;5.40;99.90;;;;;;5093359;28;20312;-62
2021/12/12 09:40:48;;;;;;;1.80;1.30;;;5.40;99.90;;;;;;5076300;28;20190;-63
2021/12/12 09:43:36;;;;;;;1.38;1.10;;;5.40;99.90;;;;;;5092476;28;20222;-60
2021/12/12 09:46:39;;;;;;;1.75;1.27;;;5.40;99.90;;;;;;5092742;28;20445;-61
2021/12/12 09:53:07;;;;;;;1.10;1.00;;;5.40;99.90;;;;;;5093785;28;20612;-65
2021/12/12 09:55:45;;;;;;;0.98;0.93;;;5.40;99.90;;;;;;5074201;28;20307;-63
2021/12/12 09:58:21;;;;;;;2.45;1.40;;;5.40;99.90;;;;;;5091620;28;20219;-62
2021/12/12 10:00:58;;;;;;;1.95;1.30;;;5.50;99.90;;;;;;5092195;28;20187;-62
2021/12/12 10:03:45;;;;;;;2.35;0.93;;;5.50;99.90;;;;;;5084738;28;20211;-60
2021/12/12 10:06:23;;;;;;;1.02;0.90;;;5.50;99.90;;;;;;5091630;28;20225;-62
2021/12/12 10:09:01;;;;;;;1.20;1.10;;;5.50;99.90;;;;;;5092225;28;20610;-61
2021/12/12 10:11:40;;;;;;;1.52;1.08;;;5.50;99.90;;;;;;5093643;28;20175;-61
2021/12/12 10:14:16;;;;;;;3.08;1.15;;;5.50;99.90;;;;;;5093446;28;20222;-63
2021/12/12 10:16:51;;;;;;;2.40;0.98;;;5.50;99.90;;;;;;5101730;28;20191;-62
2021/12/12 10:19:30;;;;;;;2.58;1.20;;;5.50;99.90;;;;;;5103533;28;20657;-61
2021/12/12 10:22:28;;;;;;;1.10;1.00;;;5.50;99.90;;;;;;5105727;28;20188;-63
2021/12/12 10:25:06;;;;;;;1.15;0.88;;;5.50;99.90;;;;;;5101858;28;20229;-62
2021/12/12 10:27:46;;;;;;;1.48;1.38;;;5.50;99.90;;;;;;5097457;28;20219;-62
2021/12/12 10:30:20;;;;;;;0.90;0.90;;;5.50;99.90;;;;;;5097623;28;20191;-62
2021/12/12 10:33:02;;;;;;;1.08;0.90;;;5.50;99.90;;;;;;5097727;28;20221;-63
2021/12/12 10:35:39;;;;;;;1.10;0.80;;;5.50;99.90;;;;;;5090656;28;21513;-62
2021/12/12 10:38:14;;;;;;;2.95;1.20;;;5.50;99.90;;;;;;5091195;28;20241;-60
2021/12/12 10:40:48;;;;;;;1.70;1.27;;;5.50;99.90;;;;;;5092834;28;20234;-61
2021/12/12 10:43:26;;;;;;;1.30;1.02;;;5.50;99.90;;;;;;5087716;28;20206;-61
2021/12/12 10:45:59;;;;;;;1.20;1.10;;;5.50;99.90;;;;;;5084153;28;20805;-63
2021/12/12 10:48:34;;;;;;;1.10;1.00;;;5.50;99.90;;;;;;5089196;28;20388;-63
2021/12/12 10:51:07;;;;;;;1.05;0.95;;;5.50;99.90;;;;;;5094968;28;20194;-60
2021/12/12 10:53:41;;;;;;;1.52;1.05;;;5.50;99.90;;;;;;5087862;28;20226;-60
2021/12/12 10:56:20;;;;;;;0.90;0.90;;;5.50;99.90;;;;;;5077525;28;20213;-61
2021/12/12 10:58:55;;;;;;;1.58;0.90;;;5.50;99.90;;;;;;5092434;28;20215;-63
2021/12/12 11:01:26;;;;;;;1.77;0.80;;;5.50;99.90;;;;;;5090699;28;20183;-63
2021/12/12 11:04:04;;;;;;;1.27;1.02;;;5.50;99.90;;;;;;5090811;28;20211;-63
2021/12/12 11:06:35;;;;;;;1.17;0.80;;;5.50;99.90;;;;;;5091591;28;20199;-61
2021/12/12 11:09:08;;;;;;;1.10;1.00;;;5.50;99.90;;;;;;5090291;28;20825;-61
2021/12/12 11:11:49;;;;;;;1.17;0.80;;;5.50;99.90;;;;;;5090677;28;20294;-62
2021/12/12 11:14:23;;;;;;;0.90;0.90;;;5.50;99.90;;;;;;5089876;28;20225;-65
2021/12/12 11:17:06;;;;;;;1.42;1.30;;;5.50;99.90;;;;;;5089620;28;20183;-65
2021/12/12 11:19:40;;;;;;;9.30;1.85;;;5.60;99.90;;;;;;5094463;28;20574;-62
2021/12/12 11:22:31;;;;;;;2.97;1.00;;;5.60;99.90;;;;;;5084037;28;20182;-61
2021/12/12 11:28:55;;;;;;;1.70;1.00;;;5.60;99.90;;;;;;5090928;28;20214;-64
2021/12/12 11:31:37;;;;;;;0.82;0.63;;;5.60;99.90;;;;;;5091559;28;20211;-61
2021/12/12 11:34:08;;;;;;;6.65;1.00;;;5.60;99.90;;;;;;5091009;28;20314;-62
2021/12/12 11:36:48;;;;;;;1.08;0.82;;;5.60;99.90;;;;;;5087654;28;20202;-62
2021/12/12 11:39:21;;;;;;;1.00;0.90;;;5.60;99.90;;;;;;5090000;28;20207;-62
2021/12/12 11:42:03;;;;;;;1.33;1.10;;;5.60;99.90;;;;;;5091235;28;20215;-61
2021/12/12 11:44:37;;;;;;;1.00;0.75;;;5.60;99.90;;;;;;5090453;28;20230;-60
2021/12/12 11:47:16;;;;;;;1.42;1.00;;;5.60;99.90;;;;;;5091064;28;20205;-61
2021/12/12 11:49:54;;;;;;;5.05;2.33;;;5.60;99.90;;;;;;5090854;28;20213;-62
2021/12/12 11:52:35;;;;;;;1.25;0.90;;;5.60;99.90;;;;;;5090692;28;20183;-62
2021/12/12 11:55:16;;;;;;;1.00;0.90;;;5.60;99.90;;;;;;5091274;28;20702;-62
2021/12/12 11:57:55;;;;;;;1.10;1.00;;;5.60;99.90;;;;;;5090818;28;20632;-61
2021/12/12 12:00:31;;;;;;;1.13;0.73;;;5.60;99.90;;;;;;5090457;28;20191;-60
2021/12/12 12:03:21;;;;;;;1.83;1.35;;;5.60;99.90;;;;;;5091127;28;20271;-63
2021/12/12 12:06:29;;;;;;;1.60;0.95;;;5.60;99.90;;;;;;5073470;28;20227;-62
2021/12/12 12:09:06;;;;;;;1.08;0.90;;;5.60;99.90;;;;;;5088088;28;20211;-61
2021/12/12 12:11:59;;;;;;;1.10;0.90;;;5.60;99.90;;;;;;5090000;28;20187;-62
2021/12/12 12:14:38;;;;;;;1.05;0.70;;;5.60;99.90;;;;;;5080543;28;20222;-61
2021/12/12 12:17:14;;;;;;;1.13;0.93;;;5.60;99.90;;;;;;5092236;28;20186;-61
2021/12/12 12:20:05;;;;;;;2.75;0.70;;;5.60;99.90;;;;;;5088414;28;20263;-61
2021/12/12 12:22:42;;;;;;;1.02;0.90;;;5.60;99.90;;;;;;5091886;28;20253;-61
2021/12/12 12:25:20;;;;;;;0.82;0.80;;;5.60;99.90;;;;;;5088721;28;20210;-61
2021/12/12 12:28:30;;;;;;;1.38;0.88;;;5.60;99.90;;;;;;5090862;28;20222;-62
2021/12/12 12:39:56;;;;;;;0.80;0.80;;;5.80;99.90;;;;;;5063146;27;20222;-63
2021/12/12 12:47:49;;;;;;;1.58;0.60;;;5.70;99.90;;;;;;5070652;28;20199;-62
2021/12/12 12:50:53;;;;;;;1.50;0.73;;;5.70;99.90;;;;;;5074233;28;20246;-61
2021/12/12 12:59:00;;;;;;;1.00;0.85;;;5.70;99.90;;;;;;5093456;27;20203;-61
2021/12/12 13:02:48;;;;;;;0.90;0.70;;;5.70;99.90;;;;;;5068507;28;20192;-63
2021/12/12 13:11:18;;;;;;;1.08;0.68;;;5.70;99.90;;;;;;5021924;28;20692;-64
2021/12/12 13:13:58;;;;;;;0.90;0.90;;;5.70;99.90;;;;;;5030039;28;20228;-63
2021/12/12 13:16:38;;;;;;;0.70;0.60;;;5.70;99.90;;;;;;5049919;22;20329;-66
2021/12/12 13:19:13;;;;;;;1.02;0.80;;;5.70;99.90;;;;;;5036703;28;20724;-66
2021/12/12 13:21:51;;;;;;;1.25;0.77;;;5.70;99.90;;;;;;5018189;28;20204;-66
2021/12/12 13:24:25;;;;;;;0.80;0.80;;;5.70;99.90;;;;;;5035455;28;20311;-65
2021/12/12 13:27:07;;;;;;;0.80;0.52;;;5.70;99.90;;;;;;5043692;28;20189;-66
2021/12/12 13:29:46;;;;;;;0.98;0.80;;;5.70;99.90;;;;;;5026867;28;20221;-69
2021/12/12 13:32:19;;;;;;;1.13;0.70;;;5.70;99.90;;;;;;5022563;28;20192;-66
2021/12/12 13:34:57;;;;;;;0.75;0.60;;;5.70;99.90;;;;;;5026927;28;20219;-65
2021/12/12 13:37:31;;;;;;;1.25;0.80;;;5.70;99.90;;;;;;5017477;28;20246;-65
2021/12/12 13:40:16;;;;;;;0.90;0.77;;;5.70;99.90;;;;;;5014839;28;20221;-66
2021/12/12 13:42:52;;;;;;;0.60;0.60;;;5.70;99.90;;;;;;5042335;28;20220;-65
2021/12/12 13:45:29;;;;;;;1.13;0.70;;;5.70;99.90;;;;;;5019024;28;20581;-65
2021/12/12 13:48:19;;;;;;;0.98;0.75;;;5.70;99.90;;;;;;5043214;28;20223;-67
2021/12/12 13:50:56;;;;;;;0.73;0.73;;;5.70;99.90;;;;;;5014669;28;20214;-66
2021/12/12 13:53:42;;;;;;;0.70;0.60;;;5.70;99.90;;;;;;5024440;28;20205;-66
2021/12/12 13:56:17;;;;;;;1.05;0.75;;;5.70;99.90;;;;;;5030751;28;20264;-65
2021/12/12 13:58:54;;;;;;;0.80;0.70;;;5.70;99.90;;;;;;5027987;28;20244;-65
2021/12/12 14:01:37;;;;;;;0.60;0.50;;;5.70;99.90;;;;;;5010645;28;20197;-66
2021/12/12 14:04:11;;;;;;;0.60;0.60;;;5.80;99.90;;;;;;5022778;28;20308;-66
2021/12/12 14:06:42;;;;;;;0.65;0.60;;;5.80;99.90;;;;;;5028428;28;20340;-66
2021/12/12 14:09:14;;;;;;;1.20;0.70;;;5.70;99.90;;;;;;5027523;28;20217;-65
2021/12/12 14:11:45;;;;;;;0.90;0.70;;;5.80;99.90;;;;;;5028221;28;20189;-66
2021/12/12 14:14:22;;;;;;;0.85;0.85;;;5.80;99.90;;;;;;5028446;28;20240;-65
2021/12/12 14:16:54;;;;;;;0.50;0.40;;;5.80;99.90;;;;;;5022504;28;20215;-66
2021/12/12 14:19:32;;;;;;;0.88;0.60;;;5.80;99.90;;;;;;5032431;28;20229;-65